createdAt,value
2022-10-22T00:01:58.042Z,46.72
2022-10-22T00:06:59.661Z,52.20
2022-10-22T00:12:01.303Z,54.80
2022-10-22T00:17:04.243Z,51.75
2022-10-22T00:22:10.108Z,49.53
2022-10-22T00:27:12.774Z,51.70
2022-10-22T00:32:15.243Z,50.22
2022-10-22T00:37:16.926Z,48.03
2022-10-22T00:42:23.939Z,48.20
2022-10-22T00:52:28.958Z,55.63
2022-10-22T00:57:30.893Z,45.42
2022-10-22T01:02:32.568Z,60.08
2022-10-22T01:07:40.858Z,54.28
2022-10-22T01:13:09.551Z,52.25
2022-10-22T01:18:26.336Z,53.95
2022-10-22T01:29:28.622Z,65.10
2022-10-22T01:34:31.848Z,50.97
2022-10-22T01:39:36.780Z,56.05
2022-10-22T01:44:38.520Z,71.15
2022-10-22T01:50:25.514Z,58.40
2022-10-22T01:55:50.036Z,56.33
2022-10-22T02:01:03.164Z,51.05
2022-10-22T02:06:15.016Z,52.20
2022-10-22T02:11:17.027Z,56.45
2022-10-22T02:16:24.205Z,57.45
2022-10-22T02:21:27.105Z,67.30
2022-10-22T02:26:35.396Z,57.03
2022-10-22T02:31:40.611Z,60.03
2022-10-22T02:36:46.774Z,58.42
2022-10-22T02:41:51.212Z,53.63
2022-10-22T02:46:52.795Z,72.88
2022-10-22T02:51:54.358Z,60.83
2022-10-22T02:56:55.879Z,61.17
2022-10-22T03:01:57.499Z,60.92
2022-10-22T03:06:59.135Z,56.78
2022-10-22T03:12:00.750Z,64.03
2022-10-22T03:17:02.398Z,52.03
2022-10-22T03:22:09.894Z,54.63
2022-10-22T03:27:15.016Z,58.97
2022-10-22T03:32:16.775Z,56.70
2022-10-22T03:37:19.197Z,62.33
2022-10-22T03:42:21.858Z,51.90
2022-10-22T03:47:26.277Z,50.03
2022-10-22T03:52:28.025Z,63.85
2022-10-22T03:57:29.558Z,61.22
2022-10-22T04:02:31.118Z,54.45
2022-10-22T04:07:32.759Z,54.83
2022-10-22T04:12:34.298Z,48.00
2022-10-22T04:17:36.706Z,54.72
2022-10-22T04:22:38.329Z,47.13
2022-10-22T04:27:40.050Z,49.58
2022-10-22T04:32:41.908Z,53.10
2022-10-22T04:37:43.538Z,51.25
2022-10-22T04:42:45.126Z,49.50
2022-10-22T04:47:46.715Z,51.25
2022-10-22T04:52:48.344Z,54.08
2022-10-22T04:57:50.006Z,54.72
2022-10-22T05:02:51.735Z,57.08
2022-10-22T05:07:53.350Z,53.90
2022-10-22T05:12:54.998Z,65.07
2022-10-22T05:17:56.579Z,51.72
2022-10-22T05:22:58.092Z,54.80
2022-10-22T05:28:00.370Z,53.92
2022-10-22T05:33:02.094Z,56.90
2022-10-22T05:38:03.664Z,55.80
2022-10-22T05:43:05.294Z,60.30
2022-10-22T05:48:08.051Z,56.88
2022-10-22T05:53:10.173Z,52.80
2022-10-22T05:58:12.823Z,57.45
2022-10-22T06:03:14.379Z,54.03
2022-10-22T06:08:18.931Z,47.22
2022-10-22T06:13:20.918Z,45.25
2022-10-22T06:18:22.554Z,44.63
2022-10-22T06:23:24.101Z,48.95
2022-10-22T06:28:26.215Z,39.20
2022-10-22T06:33:29.276Z,39.75
2022-10-22T06:38:30.855Z,45.42
2022-10-22T06:43:32.535Z,39.45
2022-10-22T06:48:36.029Z,43.97
2022-10-22T06:53:40.093Z,43.03
2022-10-22T06:58:42.008Z,36.15
2022-10-22T07:03:43.819Z,44.97
2022-10-22T07:08:45.427Z,37.00
2022-10-22T07:13:47.789Z,47.75
2022-10-22T07:18:49.456Z,44.40
2022-10-22T07:23:51.098Z,42.30
2022-10-22T07:28:52.742Z,42.25
2022-10-22T07:33:54.387Z,43.45
2022-10-22T07:38:58.476Z,48.72
2022-10-22T07:44:00.149Z,55.22
2022-10-22T07:49:01.771Z,46.33
2022-10-22T07:54:04.226Z,40.67
2022-10-22T07:59:05.784Z,52.20
2022-10-22T08:04:10.997Z,39.65
2022-10-22T08:09:12.644Z,56.25
2022-10-22T08:14:14.381Z,8.57
2022-10-22T08:19:20.838Z,3.67
2022-10-22T08:24:22.457Z,3.38
2022-10-22T08:29:25.080Z,1.60
2022-10-22T08:34:26.665Z,2.30
2022-10-22T08:39:28.299Z,1.23
2022-10-22T08:45:03.947Z,2.88
2022-10-22T08:50:12.246Z,1.67
2022-10-22T08:55:15.582Z,2.17
2022-10-22T09:00:42.372Z,3.15
2022-10-22T09:05:52.918Z,2.20
2022-10-22T09:11:37.806Z,1.70
2022-10-22T09:17:24.644Z,6.75
2022-10-22T09:22:46.628Z,11.45
2022-10-22T09:27:50.124Z,21.98
2022-10-22T09:33:11.981Z,25.70
2022-10-22T09:38:16.272Z,31.40
2022-10-22T09:43:18.970Z,24.02
2022-10-22T09:48:28.405Z,18.08
2022-10-22T09:53:31.893Z,18.23
2022-10-22T09:58:44.000Z,17.58
2022-10-22T10:03:45.644Z,17.58
2022-10-22T10:08:48.484Z,16.60
2022-10-22T10:14:04.095Z,14.68
2022-10-22T10:19:25.803Z,15.32
2022-10-22T10:24:45.332Z,14.20
2022-10-22T10:30:03.079Z,12.90
2022-10-22T10:35:28.235Z,11.95
2022-10-22T10:40:43.691Z,1.58
2022-10-22T10:45:57.268Z,0.80
2022-10-22T10:51:19.340Z,0.40
2022-10-22T10:56:38.364Z,1.33
2022-10-22T11:02:14.175Z,1.02
2022-10-22T11:07:34.343Z,0.40
2022-10-22T11:12:42.478Z,0.40
2022-10-22T11:17:48.077Z,1.13
2022-10-22T11:23:20.861Z,0.57
2022-10-22T11:28:30.004Z,0.40
2022-10-22T11:34:33.604Z,0.73
2022-10-22T11:39:42.700Z,0.93
2022-10-22T11:45:05.094Z,0.63
2022-10-22T11:50:43.786Z,0.70
2022-10-22T11:55:51.792Z,1.58
2022-10-22T12:01:03.071Z,1.67
2022-10-22T12:06:15.639Z,1.45
2022-10-22T12:11:28.928Z,1.27
2022-10-22T12:16:54.667Z,1.25
2022-10-22T12:21:59.862Z,1.33
2022-10-22T12:27:01.450Z,0.70
2022-10-22T12:32:04.682Z,2.88
2022-10-22T12:37:06.260Z,0.75
2022-10-22T12:42:13.339Z,0.70
2022-10-22T12:47:18.821Z,1.23
2022-10-22T12:52:23.642Z,0.50
2022-10-22T12:57:25.565Z,3.58
2022-10-22T13:02:29.052Z,0.85
2022-10-22T13:07:39.403Z,1.60
2022-10-22T13:12:48.735Z,1.20
2022-10-22T13:17:50.388Z,0.50
2022-10-22T13:23:03.342Z,2.13
2022-10-22T13:28:21.780Z,0.85
2022-10-22T13:33:34.724Z,0.73
2022-10-22T13:38:36.626Z,1.83
2022-10-22T13:43:38.290Z,2.03
2022-10-22T13:48:40.136Z,5.13
2022-10-22T13:53:43.730Z,2.15
2022-10-22T13:58:47.033Z,0.60
2022-10-22T14:03:54.333Z,0.50
2022-10-22T14:08:59.358Z,2.45
2022-10-22T14:14:03.559Z,0.88
2022-10-22T14:19:07.818Z,0.50
2022-10-22T14:24:13.131Z,1.75
2022-10-22T14:29:15.186Z,2.10
2022-10-22T14:34:16.921Z,1.30
2022-10-22T14:39:18.654Z,1.50
2022-10-22T14:44:20.182Z,1.13
2022-10-22T14:49:21.908Z,1.55
2022-10-22T14:54:23.499Z,1.02
2022-10-22T14:59:25.138Z,1.73
2022-10-22T15:04:27.316Z,1.05
2022-10-22T15:09:29.140Z,2.47
2022-10-22T15:14:31.095Z,0.50
2022-10-22T15:19:32.737Z,0.55
2022-10-22T15:24:34.724Z,1.15
2022-10-22T15:29:36.503Z,1.23
2022-10-22T15:34:39.989Z,0.90
2022-10-22T15:39:42.476Z,1.10
2022-10-22T15:44:44.085Z,1.42
2022-10-22T15:49:45.867Z,1.48
2022-10-22T15:54:47.676Z,2.20
2022-10-22T15:59:50.150Z,1.60
2022-10-22T16:04:51.673Z,1.08
2022-10-22T16:09:58.168Z,1.67
2022-10-22T16:14:59.896Z,1.90
2022-10-22T16:20:01.623Z,1.92
2022-10-22T16:25:03.387Z,1.80
2022-10-22T16:30:05.474Z,2.72
2022-10-22T16:35:08.445Z,2.30
2022-10-22T16:40:11.112Z,3.08
2022-10-22T16:45:12.881Z,3.13
2022-10-22T16:50:14.494Z,4.82
2022-10-22T16:55:16.209Z,3.53
2022-10-22T17:00:18.193Z,5.47
2022-10-22T17:05:20.703Z,3.22
2022-10-22T17:15:24.843Z,4.20
2022-10-22T17:20:26.895Z,5.15
2022-10-22T17:25:44.956Z,5.30
2022-10-22T17:30:46.522Z,5.20
2022-10-22T17:35:49.377Z,6.95
2022-10-22T17:40:50.961Z,4.40
2022-10-22T17:45:52.575Z,3.95
2022-10-22T17:50:55.761Z,3.53
2022-10-22T17:56:01.966Z,3.70
2022-10-22T18:01:04.737Z,6.13
2022-10-22T18:06:07.796Z,5.68
2022-10-22T18:11:11.778Z,5.53
2022-10-22T18:16:13.377Z,4.82
2022-10-22T18:21:16.284Z,4.90
2022-10-22T18:26:20.349Z,4.50
2022-10-22T18:31:27.007Z,6.88
2022-10-22T18:36:28.814Z,6.07
2022-10-22T18:41:31.887Z,7.30
2022-10-22T18:46:35.134Z,10.75
2022-10-22T18:51:36.765Z,11.07
2022-10-22T18:56:40.623Z,9.23
2022-10-22T19:01:42.208Z,10.07
2022-10-22T19:06:45.745Z,14.80
2022-10-22T19:11:47.762Z,12.05
2022-10-22T19:16:49.735Z,6.45
2022-10-22T19:21:51.428Z,6.38
2022-10-22T19:26:53.511Z,6.18
2022-10-22T19:31:55.287Z,5.82
2022-10-22T19:36:56.916Z,6.28
2022-10-22T19:41:58.540Z,5.95
2022-10-22T19:47:00.128Z,5.03
2022-10-22T19:52:02.763Z,4.70
2022-10-22T19:57:04.380Z,6.53
2022-10-22T20:02:06.375Z,5.20
2022-10-22T20:07:08.129Z,4.28
2022-10-22T20:12:09.705Z,4.90
2022-10-22T20:17:11.415Z,4.32
2022-10-22T20:22:16.238Z,2.90
2022-10-22T20:27:20.349Z,3.00
2022-10-22T20:32:24.272Z,2.83
2022-10-22T20:37:25.940Z,4.95
2022-10-22T20:42:27.720Z,1.92
2022-10-22T20:47:39.284Z,2.38
2022-10-22T20:52:51.466Z,2.42
2022-10-22T20:57:53.136Z,2.95
2022-10-22T21:02:54.778Z,3.55
2022-10-22T21:07:58.410Z,3.60
2022-10-22T21:13:00.268Z,2.42
2022-10-22T21:18:01.824Z,3.65
2022-10-22T21:23:03.421Z,3.75
2022-10-22T21:28:05.106Z,5.93
2022-10-22T21:33:06.655Z,2.33
2022-10-22T21:38:08.285Z,4.10
2022-10-22T21:43:09.949Z,4.28
2022-10-22T21:48:13.925Z,4.35
2022-10-22T21:53:15.498Z,4.57
2022-10-22T21:58:17.143Z,2.85
2022-10-22T22:03:18.752Z,6.20
2022-10-22T22:08:20.309Z,13.40
2022-10-22T22:13:24.947Z,12.38
2022-10-22T22:18:26.696Z,12.65
2022-10-22T22:23:28.345Z,14.57
2022-10-22T22:28:30.463Z,13.68
2022-10-22T22:33:32.128Z,13.82
2022-10-22T22:38:33.731Z,14.20
2022-10-22T22:43:36.951Z,13.90
2022-10-22T22:48:38.915Z,12.38
2022-10-22T22:53:40.466Z,14.10
2022-10-22T22:58:42.358Z,14.48
2022-10-22T23:03:46.751Z,13.75
2022-10-22T23:08:50.221Z,15.45
2022-10-22T23:13:54.347Z,14.23
2022-10-22T23:18:56.280Z,13.10
2022-10-22T23:24:00.246Z,20.05
2022-10-22T23:29:07.044Z,14.32
2022-10-22T23:34:10.342Z,13.20
2022-10-22T23:39:14.527Z,13.65
2022-10-22T23:44:16.221Z,14.32
2022-10-22T23:49:18.457Z,14.70
2022-10-22T23:54:20.015Z,15.02
2022-10-22T23:59:21.585Z,12.95
